LDZALDRI

Guest
Details From LDZA - Zagreb
To LDRI - RIJEKA
Flight Number -
Tags generated
Created
Modified
Stats Distance 71 nm / 131 km
Max Altitude 8,500 ft / 2,591 m
Waypoints 3
Social Downloads 5
Likes 0
Share VATSIM

Download

Looking for another format? Having issues loading an existing format? Contact us
Advertisement - Login to hide

Notes

Basic altitude profile: - Ascent Rate: 2500ft/min - Ascent Speed: 250kts - Cruise Altitude: 35000ft - Cruise Speed: 420kts - Descent Rate: 1500ft/min - Descent Speed: 250kts Options: - Use NATs: yes - Use PACOTS: yes - Use low airways: yes - Use high airways: yes

Route

LDZA KERLO LDRI

ID Type Via Altitude Latitude Longitude Leg Dist Tot Dist Heading (true) Name
O LDZA APT - 0 ft / 0 m 45.74189˚ 16.06720˚ - 0 nm - Zagreb
KERLO FIX - 8,500 ft / 2,591 m 45.53528˚ 15.57861˚ 23 nm 23 nm 239° / 239° -
O LDRI APT - 0 ft / 0 m 45.21663˚ 14.57081˚ 46 nm 70 nm 246° / 245° RIJEKA

Altitude Profile

Advertisement - Login to hide

LDZA

Details ICAO LDZA (ZAG)
Name Zagreb
Region Croatia
Timezone Europe/Zagreb (UTC+1.0)
Stats Elevation 353 ft / 108 m (AMSL)
Location 45.741890° 16.067200°
Runways 1
Magnetic Variation 3.960° E

METAR

LDZA 171730Z 23002KT 5000 BR FEW033 01/00 Q1021 BECMG TL1800 2000 BR

Decode

TAF

TAF LDZA 171125Z 1712/1812 VRB02KT CAVOK TX07/1713Z TNM03/1802Z PROB30 1721/1811 0200 FZFG VV001

Decode

Departure Runways

ID Width Length Bearing (true) Bearing (mag) Surface Threshold Offset Overrun Length
05 148 ft / 45 m 10,659 ft / 3,249 m 46.69° 42.73° Asphalt 0 ft / 0 m 195 ft / 59 m
23 148 ft / 45 m 10,659 ft / 3,249 m 226.71° 222.75° Asphalt 0 ft / 0 m 195 ft / 59 m

LDRI

Details ICAO LDRI (RJK)
Name RIJEKA
Region Croatia
Timezone Europe/Zagreb (UTC+1.0)
Stats Elevation 278 ft / 85 m (AMSL)
Location 45.216635° 14.570813°
Runways 1
Magnetic Variation 3.624° E

METAR

LDRI 171730Z 36006KT CAVOK 05/M03 Q1020

Decode

TAF

TAF LDRI 171125Z 1712/1812 VRB02KT CAVOK TX09/1712Z TN01/1804Z=

Decode

Destination Runways

ID Width Length Bearing (true) Bearing (mag) Surface Threshold Offset Overrun Length
14 148 ft / 45 m 8,161 ft / 2,488 m 143.77° 140.15° Asphalt 0 ft / 0 m 0 ft / 0 m
32 148 ft / 45 m 8,161 ft / 2,488 m 323.78° 320.16° Asphalt 0 ft / 0 m 0 ft / 0 m

Approach Navaids

Runway Type Ident Frequency Range Bearing (true) Bearing (mag) Slope Elevation
14 Localiser IKR 108.50 MHz 25 nm / 46 km 143.68° 140.06° - 200 ft / 61 m (AMSL)
14 Glidescope IKR 108.50 MHz 25 nm / 46 km 143.68° 140.06° 3.00° 259 ft / 79 m (AMSL)

Popular Alternatives